sensor_id;sensor_type;location;lat;lon;timestamp;temperature;humidity
65419;DHT22;52027;50.658;14.004;2022-09-24T00:01:29;23.89;41.22
65419;DHT22;52027;50.658;14.004;2022-09-24T00:04:06;23.88;41.14
65419;DHT22;52027;50.658;14.004;2022-09-24T00:06:41;23.90;41.14
65419;DHT22;52027;50.658;14.004;2022-09-24T00:09:07;23.86;41.16
65419;DHT22;52027;50.658;14.004;2022-09-24T00:11:32;23.86;41.16
65419;DHT22;52027;50.658;14.004;2022-09-24T00:13:58;23.86;41.16
65419;DHT22;52027;50.658;14.004;2022-09-24T00:16:25;23.89;41.04
65419;DHT22;52027;50.658;14.004;2022-09-24T00:18:51;23.85;41.19
65419;DHT22;52027;50.658;14.004;2022-09-24T00:21:34;23.88;41.11
65419;DHT22;52027;50.658;14.004;2022-09-24T00:24:06;23.86;41.17
65419;DHT22;52027;50.658;14.004;2022-09-24T00:26:32;23.84;41.21
65419;DHT22;52027;50.658;14.004;2022-09-24T00:29:21;23.88;41.21
65419;DHT22;52027;50.658;14.004;2022-09-24T00:31:49;23.86;41.17
65419;DHT22;52027;50.658;14.004;2022-09-24T00:34:15;23.85;41.14
65419;DHT22;52027;50.658;14.004;2022-09-24T00:36:40;23.85;41.18
65419;DHT22;52027;50.658;14.004;2022-09-24T00:39:06;23.85;41.18
65419;DHT22;52027;50.658;14.004;2022-09-24T00:41:34;23.85;41.14
65419;DHT22;52027;50.658;14.004;2022-09-24T00:47:04;23.84;41.14
65419;DHT22;52027;50.658;14.004;2022-09-24T00:49:30;23.84;41.18
65419;DHT22;52027;50.658;14.004;2022-09-24T00:51:56;23.84;41.11
65419;DHT22;52027;50.658;14.004;2022-09-24T00:54:25;23.84;41.12
65419;DHT22;52027;50.658;14.004;2022-09-24T00:56:53;23.86;41.14
65419;DHT22;52027;50.658;14.004;2022-09-24T00:59:20;23.84;41.17
65419;DHT22;52027;50.658;14.004;2022-09-24T01:01:49;23.85;41.12
65419;DHT22;52027;50.658;14.004;2022-09-24T01:04:16;23.85;41.11
65419;DHT22;52027;50.658;14.004;2022-09-24T01:06:45;23.85;41.18
65419;DHT22;52027;50.658;14.004;2022-09-24T01:09:11;23.84;41.15
65419;DHT22;52027;50.658;14.004;2022-09-24T01:17:55;23.84;41.14
65419;DHT22;52027;50.658;14.004;2022-09-24T01:28:39;23.85;41.10
65419;DHT22;52027;50.658;14.004;2022-09-24T01:31:14;23.82;41.06
65419;DHT22;52027;50.658;14.004;2022-09-24T01:33:43;23.84;41.12
65419;DHT22;52027;50.658;14.004;2022-09-24T01:36:10;23.84;41.12
65419;DHT22;52027;50.658;14.004;2022-09-24T01:38:40;23.84;41.15
65419;DHT22;52027;50.658;14.004;2022-09-24T01:41:09;23.84;41.08
65419;DHT22;52027;50.658;14.004;2022-09-24T01:43:35;23.84;41.21
65419;DHT22;52027;50.658;14.004;2022-09-24T01:46:03;23.84;41.18
65419;DHT22;52027;50.658;14.004;2022-09-24T01:48:30;23.85;41.05
65419;DHT22;52027;50.658;14.004;2022-09-24T01:51:09;23.81;41.09
65419;DHT22;52027;50.658;14.004;2022-09-24T01:53:59;23.82;41.20
65419;DHT22;52027;50.658;14.004;2022-09-24T01:56:32;23.82;41.15
65419;DHT22;52027;50.658;14.004;2022-09-24T01:59:03;23.82;41.06
65419;DHT22;52027;50.658;14.004;2022-09-24T02:01:32;23.84;41.03
65419;DHT22;52027;50.658;14.004;2022-09-24T02:04:05;23.82;41.18
65419;DHT22;52027;50.658;14.004;2022-09-24T02:06:37;23.81;41.09
65419;DHT22;52027;50.658;14.004;2022-09-24T02:09:04;23.82;41.08
65419;DHT22;52027;50.658;14.004;2022-09-24T02:11:32;23.82;41.05
65419;DHT22;52027;50.658;14.004;2022-09-24T02:14:11;23.81;41.06
65419;DHT22;52027;50.658;14.004;2022-09-24T02:16:42;23.81;41.02
65419;DHT22;52027;50.658;14.004;2022-09-24T02:19:10;23.81;41.11
65419;DHT22;52027;50.658;14.004;2022-09-24T02:21:38;23.79;41.03
65419;DHT22;52027;50.658;14.004;2022-09-24T02:27:03;23.81;41.11
65419;DHT22;52027;50.658;14.004;2022-09-24T02:29:29;23.81;41.10
65419;DHT22;52027;50.658;14.004;2022-09-24T02:31:55;23.79;41.07
65419;DHT22;52027;50.658;14.004;2022-09-24T02:34:30;23.79;41.06
65419;DHT22;52027;50.658;14.004;2022-09-24T02:36:59;23.81;41.06
65419;DHT22;52027;50.658;14.004;2022-09-24T02:39:27;23.78;41.06
65419;DHT22;52027;50.658;14.004;2022-09-24T02:41:53;23.78;41.09
65419;DHT22;52027;50.658;14.004;2022-09-24T02:44:19;23.78;40.99
65419;DHT22;52027;50.658;14.004;2022-09-24T02:46:45;23.81;41.06
65419;DHT22;52027;50.658;14.004;2022-09-24T02:49:12;23.79;41.06
65419;DHT22;52027;50.658;14.004;2022-09-24T02:51:38;23.79;41.00
65419;DHT22;52027;50.658;14.004;2022-09-24T02:54:04;23.81;41.03
65419;DHT22;52027;50.658;14.004;2022-09-24T02:56:30;23.79;41.06
65419;DHT22;52027;50.658;14.004;2022-09-24T02:58:55;23.79;41.00
65419;DHT22;52027;50.658;14.004;2022-09-24T03:01:21;23.79;41.05
65419;DHT22;52027;50.658;14.004;2022-09-24T03:03:47;23.81;41.03
65419;DHT22;52027;50.658;14.004;2022-09-24T03:06:12;23.78;41.04
65419;DHT22;52027;50.658;14.004;2022-09-24T03:08:39;23.79;41.00
65419;DHT22;52027;50.658;14.004;2022-09-24T03:11:05;23.79;41.04
65419;DHT22;52027;50.658;14.004;2022-09-24T03:13:31;23.79;41.00
65419;DHT22;52027;50.658;14.004;2022-09-24T03:15:56;23.79;41.04
65419;DHT22;52027;50.658;14.004;2022-09-24T03:18:21;23.78;41.06
65419;DHT22;52027;50.658;14.004;2022-09-24T03:21:17;23.79;41.04
65419;DHT22;52027;50.658;14.004;2022-09-24T03:23:43;23.78;40.97
65419;DHT22;52027;50.658;14.004;2022-09-24T03:26:09;23.77;40.97
65419;DHT22;52027;50.658;14.004;2022-09-24T03:28:34;23.75;40.97
65419;DHT22;52027;50.658;14.004;2022-09-24T03:31:00;23.77;40.94
65419;DHT22;52027;50.658;14.004;2022-09-24T03:33:32;23.77;41.00
65419;DHT22;52027;50.658;14.004;2022-09-24T03:36:02;23.75;40.95
65419;DHT22;52027;50.658;14.004;2022-09-24T03:38:29;23.79;41.04
65419;DHT22;52027;50.658;14.004;2022-09-24T03:40:57;23.75;40.97
65419;DHT22;52027;50.658;14.004;2022-09-24T03:43:23;23.75;41.07
65419;DHT22;52027;50.658;14.004;2022-09-24T03:45:49;23.77;40.94
65419;DHT22;52027;50.658;14.004;2022-09-24T03:48:15;23.77;40.96
65419;DHT22;52027;50.658;14.004;2022-09-24T03:50:41;23.77;40.94
65419;DHT22;52027;50.658;14.004;2022-09-24T03:53:06;23.75;40.92
65419;DHT22;52027;50.658;14.004;2022-09-24T03:55:32;23.75;40.97
65419;DHT22;52027;50.658;14.004;2022-09-24T03:57:57;23.75;40.95
65419;DHT22;52027;50.658;14.004;2022-09-24T04:00:22;23.77;40.94
65419;DHT22;52027;50.658;14.004;2022-09-24T04:02:48;23.74;40.96
65419;DHT22;52027;50.658;14.004;2022-09-24T04:05:14;23.74;40.97
65419;DHT22;52027;50.658;14.004;2022-09-24T04:07:42;23.74;40.98
65419;DHT22;52027;50.658;14.004;2022-09-24T04:10:07;23.75;40.98
65419;DHT22;52027;50.658;14.004;2022-09-24T04:12:33;23.74;40.96
65419;DHT22;52027;50.658;14.004;2022-09-24T04:14:58;23.75;40.94
65419;DHT22;52027;50.658;14.004;2022-09-24T04:17:26;23.74;40.96
65419;DHT22;52027;50.658;14.004;2022-09-24T04:19:58;23.75;41.01
65419;DHT22;52027;50.658;14.004;2022-09-24T04:22:24;23.75;40.96
65419;DHT22;52027;50.658;14.004;2022-09-24T04:24:50;23.74;40.85
65419;DHT22;52027;50.658;14.004;2022-09-24T04:27:17;23.71;41.00
65419;DHT22;52027;50.658;14.004;2022-09-24T04:29:42;23.75;40.90
65419;DHT22;52027;50.658;14.004;2022-09-24T04:32:07;23.74;40.96
65419;DHT22;52027;50.658;14.004;2022-09-24T04:34:32;23.74;40.88
65419;DHT22;52027;50.658;14.004;2022-09-24T04:36:58;23.72;40.88
65419;DHT22;52027;50.658;14.004;2022-09-24T04:39:23;23.72;40.93
65419;DHT22;52027;50.658;14.004;2022-09-24T04:41:52;23.69;40.98
65419;DHT22;52027;50.658;14.004;2022-09-24T04:44:17;23.72;40.92
65419;DHT22;52027;50.658;14.004;2022-09-24T04:46:42;23.71;40.96
65419;DHT22;52027;50.658;14.004;2022-09-24T04:49:08;23.69;40.92
65419;DHT22;52027;50.658;14.004;2022-09-24T04:51:34;23.74;40.86
65419;DHT22;52027;50.658;14.004;2022-09-24T04:54:00;23.69;40.95
65419;DHT22;52027;50.658;14.004;2022-09-24T04:56:27;23.71;40.83
65419;DHT22;52027;50.658;14.004;2022-09-24T04:58:52;23.71;40.87
65419;DHT22;52027;50.658;14.004;2022-09-24T05:01:18;23.72;40.89
65419;DHT22;52027;50.658;14.004;2022-09-24T05:03:44;23.72;40.87
65419;DHT22;52027;50.658;14.004;2022-09-24T05:06:10;23.71;40.93
65419;DHT22;52027;50.658;14.004;2022-09-24T05:08:35;23.71;40.98
65419;DHT22;52027;50.658;14.004;2022-09-24T05:11:01;23.69;40.95
65419;DHT22;52027;50.658;14.004;2022-09-24T05:13:26;23.69;40.93
65419;DHT22;52027;50.658;14.004;2022-09-24T05:15:52;23.68;40.87
65419;DHT22;52027;50.658;14.004;2022-09-24T05:18:18;23.68;40.91
65419;DHT22;52027;50.658;14.004;2022-09-24T05:20:43;23.69;40.93
65419;DHT22;52027;50.658;14.004;2022-09-24T05:23:08;23.69;40.83
65419;DHT22;52027;50.658;14.004;2022-09-24T05:25:34;23.68;40.90
65419;DHT22;52027;50.658;14.004;2022-09-24T05:28:19;23.68;40.86
65419;DHT22;52027;50.658;14.004;2022-09-24T05:30:45;23.72;40.89
65419;DHT22;52027;50.658;14.004;2022-09-24T05:33:12;23.68;40.86
65419;DHT22;52027;50.658;14.004;2022-09-24T05:35:37;23.71;40.78
65419;DHT22;52027;50.658;14.004;2022-09-24T05:38:02;23.67;40.89
65419;DHT22;52027;50.658;14.004;2022-09-24T05:40:28;23.69;40.86
65419;DHT22;52027;50.658;14.004;2022-09-24T05:43:12;23.69;40.90
65419;DHT22;52027;50.658;14.004;2022-09-24T05:45:38;23.68;40.81
65419;DHT22;52027;50.658;14.004;2022-09-24T05:48:03;23.68;40.85
65419;DHT22;52027;50.658;14.004;2022-09-24T05:50:29;23.69;40.84
65419;DHT22;52027;50.658;14.004;2022-09-24T05:52:57;23.68;40.78
65419;DHT22;52027;50.658;14.004;2022-09-24T05:55:22;23.67;40.80
65419;DHT22;52027;50.658;14.004;2022-09-24T05:57:48;23.69;40.78
65419;DHT22;52027;50.658;14.004;2022-09-24T06:00:13;23.69;40.84
65419;DHT22;52027;50.658;14.004;2022-09-24T06:02:38;23.68;40.77
65419;DHT22;52027;50.658;14.004;2022-09-24T06:05:04;23.68;40.83
65419;DHT22;52027;50.658;14.004;2022-09-24T06:07:30;23.72;40.84
65419;DHT22;52027;50.658;14.004;2022-09-24T06:09:55;23.69;40.77
65419;DHT22;52027;50.658;14.004;2022-09-24T06:12:23;23.72;40.78
65419;DHT22;52027;50.658;14.004;2022-09-24T06:14:48;23.71;40.75
65419;DHT22;52027;50.658;14.004;2022-09-24T06:17:14;23.71;40.73
65419;DHT22;52027;50.658;14.004;2022-09-24T06:19:39;23.69;40.78
65419;DHT22;52027;50.658;14.004;2022-09-24T06:22:05;23.71;40.76
65419;DHT22;52027;50.658;14.004;2022-09-24T06:24:30;23.72;40.73
65419;DHT22;52027;50.658;14.004;2022-09-24T06:26:56;23.71;40.70
65419;DHT22;52027;50.658;14.004;2022-09-24T06:29:22;23.71;40.73
65419;DHT22;52027;50.658;14.004;2022-09-24T06:31:47;23.74;40.66
65419;DHT22;52027;50.658;14.004;2022-09-24T06:34:13;23.74;40.69
65419;DHT22;52027;50.658;14.004;2022-09-24T06:36:39;23.77;40.66
65419;DHT22;52027;50.658;14.004;2022-09-24T06:39:04;23.77;40.63
65419;DHT22;52027;50.658;14.004;2022-09-24T06:41:29;23.75;40.66
65419;DHT22;52027;50.658;14.004;2022-09-24T06:43:55;23.79;40.63
65419;DHT22;52027;50.658;14.004;2022-09-24T06:46:21;23.78;40.60
65419;DHT22;52027;50.658;14.004;2022-09-24T06:48:50;23.81;40.62
65419;DHT22;52027;50.658;14.004;2022-09-24T06:51:15;23.84;40.68
65419;DHT22;52027;50.658;14.004;2022-09-24T06:53:41;23.82;40.60
65419;DHT22;52027;50.658;14.004;2022-09-24T06:56:06;23.84;40.52
65419;DHT22;52027;50.658;14.004;2022-09-24T06:58:32;23.84;40.51
65419;DHT22;52027;50.658;14.004;2022-09-24T07:00:59;23.84;40.52
65419;DHT22;52027;50.658;14.004;2022-09-24T07:03:28;23.84;40.54
65419;DHT22;52027;50.658;14.004;2022-09-24T07:05:53;23.86;40.51
65419;DHT22;52027;50.658;14.004;2022-09-24T07:08:19;23.88;40.52
65419;DHT22;52027;50.658;14.004;2022-09-24T07:10:46;23.88;40.51
65419;DHT22;52027;50.658;14.004;2022-09-24T07:13:13;23.88;40.48
65419;DHT22;52027;50.658;14.004;2022-09-24T07:15:40;23.88;40.43
65419;DHT22;52027;50.658;14.004;2022-09-24T07:18:05;23.89;40.51
65419;DHT22;52027;50.658;14.004;2022-09-24T07:20:31;23.92;40.47
65419;DHT22;52027;50.658;14.004;2022-09-24T07:22:58;23.90;40.43
65419;DHT22;52027;50.658;14.004;2022-09-24T07:25:23;23.92;40.37
65419;DHT22;52027;50.658;14.004;2022-09-24T07:27:48;23.90;40.41
65419;DHT22;52027;50.658;14.004;2022-09-24T07:30:14;23.94;40.41
65419;DHT22;52027;50.658;14.004;2022-09-24T07:32:39;23.96;40.39
65419;DHT22;52027;50.658;14.004;2022-09-24T07:35:05;23.96;40.38
65419;DHT22;52027;50.658;14.004;2022-09-24T07:37:31;23.98;40.36
65419;DHT22;52027;50.658;14.004;2022-09-24T07:39:57;23.99;40.36
65419;DHT22;52027;50.658;14.004;2022-09-24T07:42:23;23.96;40.32
65419;DHT22;52027;50.658;14.004;2022-09-24T07:44:49;23.98;40.33
65419;DHT22;52027;50.658;14.004;2022-09-24T07:47:15;23.98;40.33
65419;DHT22;52027;50.658;14.004;2022-09-24T07:49:40;23.98;40.30
65419;DHT22;52027;50.658;14.004;2022-09-24T07:52:06;23.98;40.32
65419;DHT22;52027;50.658;14.004;2022-09-24T07:54:32;23.99;40.30
65419;DHT22;52027;50.658;14.004;2022-09-24T07:56:57;23.99;40.33
65419;DHT22;52027;50.658;14.004;2022-09-24T07:59:23;24.01;40.29
65419;DHT22;52027;50.658;14.004;2022-09-24T08:01:49;23.98;40.36
65419;DHT22;52027;50.658;14.004;2022-09-24T08:04:14;24.02;40.29
65419;DHT22;52027;50.658;14.004;2022-09-24T08:06:40;24.02;40.31
65419;DHT22;52027;50.658;14.004;2022-09-24T08:09:06;24.04;40.26
65419;DHT22;52027;50.658;14.004;2022-09-24T08:11:32;24.05;40.30
65419;DHT22;52027;50.658;14.004;2022-09-24T08:13:58;24.06;40.30
65419;DHT22;52027;50.658;14.004;2022-09-24T08:16:24;24.09;40.25
65419;DHT22;52027;50.658;14.004;2022-09-24T08:18:51;24.12;40.27
65419;DHT22;52027;50.658;14.004;2022-09-24T08:21:17;24.12;40.22
65419;DHT22;52027;50.658;14.004;2022-09-24T08:23:42;24.15;40.22
65419;DHT22;52027;50.658;14.004;2022-09-24T08:26:11;24.17;40.19
65419;DHT22;52027;50.658;14.004;2022-09-24T08:28:38;24.17;40.15
65419;DHT22;52027;50.658;14.004;2022-09-24T08:31:07;24.20;40.17
65419;DHT22;52027;50.658;14.004;2022-09-24T08:33:36;24.19;40.14
65419;DHT22;52027;50.658;14.004;2022-09-24T08:36:03;24.23;40.12
65419;DHT22;52027;50.658;14.004;2022-09-24T08:38:29;24.22;40.11
65419;DHT22;52027;50.658;14.004;2022-09-24T08:41:16;24.25;40.07
65419;DHT22;52027;50.658;14.004;2022-09-24T08:46:43;24.27;40.13
65419;DHT22;52027;50.658;14.004;2022-09-24T08:49:42;24.30;40.16
65419;DHT22;52027;50.658;14.004;2022-09-24T08:54:48;24.32;40.18
65419;DHT22;52027;50.658;14.004;2022-09-24T08:57:15;24.29;40.21
65419;DHT22;52027;50.658;14.004;2022-09-24T08:59:48;24.32;40.22
65419;DHT22;52027;50.658;14.004;2022-09-24T09:07:56;24.32;40.15
65419;DHT22;52027;50.658;14.004;2022-09-24T09:10:31;24.36;40.18
65419;DHT22;52027;50.658;14.004;2022-09-24T09:13:25;24.36;40.17
65419;DHT22;52027;50.658;14.004;2022-09-24T09:16:06;24.36;40.08
65419;DHT22;52027;50.658;14.004;2022-09-24T09:18:38;24.40;40.14
65419;DHT22;52027;50.658;14.004;2022-09-24T09:21:14;24.40;40.06
65419;DHT22;52027;50.658;14.004;2022-09-24T09:23:43;24.40;40.07
65419;DHT22;52027;50.658;14.004;2022-09-24T09:26:11;24.41;40.13
65419;DHT22;52027;50.658;14.004;2022-09-24T09:28:36;24.40;40.06
65419;DHT22;52027;50.658;14.004;2022-09-24T09:33:56;24.44;40.01
65419;DHT22;52027;50.658;14.004;2022-09-24T09:36:56;24.47;40.02
65419;DHT22;52027;50.658;14.004;2022-09-24T09:39:34;24.49;40.01
65419;DHT22;52027;50.658;14.004;2022-09-24T09:44:40;24.50;39.91
65419;DHT22;52027;50.658;14.004;2022-09-24T09:49:49;24.54;39.94
65419;DHT22;52027;50.658;14.004;2022-09-24T09:52:21;24.53;40.00
65419;DHT22;52027;50.658;14.004;2022-09-24T09:54:49;24.53;40.01
65419;DHT22;52027;50.658;14.004;2022-09-24T09:57:22;24.54;40.06
65419;DHT22;52027;50.658;14.004;2022-09-24T09:59:49;24.54;40.07
65419;DHT22;52027;50.658;14.004;2022-09-24T10:02:35;24.53;40.14
65419;DHT22;52027;50.658;14.004;2022-09-24T10:05:04;24.54;40.04
65419;DHT22;52027;50.658;14.004;2022-09-24T10:07:30;24.54;40.08
65419;DHT22;52027;50.658;14.004;2022-09-24T10:10:03;24.50;40.07
65419;DHT22;52027;50.658;14.004;2022-09-24T10:12:28;24.53;40.10
65419;DHT22;52027;50.658;14.004;2022-09-24T10:15:04;24.54;40.11
65419;DHT22;52027;50.658;14.004;2022-09-24T10:17:40;24.54;40.07
65419;DHT22;52027;50.658;14.004;2022-09-24T10:22:50;24.54;40.07
65419;DHT22;52027;50.658;14.004;2022-09-24T10:25:19;24.56;40.07
65419;DHT22;52027;50.658;14.004;2022-09-24T10:27:47;24.56;40.02
65419;DHT22;52027;50.658;14.004;2022-09-24T10:30:14;24.59;40.05
65419;DHT22;52027;50.658;14.004;2022-09-24T10:33:00;24.57;39.97
65419;DHT22;52027;50.658;14.004;2022-09-24T10:35:27;24.61;39.90
65419;DHT22;52027;50.658;14.004;2022-09-24T10:37:55;24.60;39.96
65419;DHT22;52027;50.658;14.004;2022-09-24T10:40:38;24.63;39.92
65419;DHT22;52027;50.658;14.004;2022-09-24T10:43:05;24.64;39.80
65419;DHT22;52027;50.658;14.004;2022-09-24T10:48:02;24.67;39.78
65419;DHT22;52027;50.658;14.004;2022-09-24T10:50:56;24.70;39.81
65419;DHT22;52027;50.658;14.004;2022-09-24T10:56:15;24.71;39.78
65419;DHT22;52027;50.658;14.004;2022-09-24T11:04:53;24.78;39.67
65419;DHT22;52027;50.658;14.004;2022-09-24T11:12:22;24.78;39.70
65419;DHT22;52027;50.658;14.004;2022-09-24T11:32:02;24.88;39.72
65419;DHT22;52027;50.658;14.004;2022-09-24T11:50:58;24.88;39.68
65419;DHT22;52027;50.658;14.004;2022-09-24T11:53:41;24.87;39.71
65419;DHT22;52027;50.658;14.004;2022-09-24T11:56:23;24.87;39.74
65419;DHT22;52027;50.658;14.004;2022-09-24T11:58:55;24.87;39.84
65419;DHT22;52027;50.658;14.004;2022-09-24T12:01:28;24.85;39.80
65419;DHT22;52027;50.658;14.004;2022-09-24T12:04:05;24.84;39.75
65419;DHT22;52027;50.658;14.004;2022-09-24T12:06:37;24.85;39.75
65419;DHT22;52027;50.658;14.004;2022-09-24T12:09:29;24.84;39.81
65419;DHT22;52027;50.658;14.004;2022-09-24T12:12:06;24.84;39.83
65419;DHT22;52027;50.658;14.004;2022-09-24T12:20:21;24.84;39.86
65419;DHT22;52027;50.658;14.004;2022-09-24T12:22:51;24.87;39.84
65419;DHT22;52027;50.658;14.004;2022-09-24T12:25:20;24.85;39.81
65419;DHT22;52027;50.658;14.004;2022-09-24T12:27:46;24.85;39.90
65419;DHT22;52027;50.658;14.004;2022-09-24T12:32:58;24.90;39.79
65419;DHT22;52027;50.658;14.004;2022-09-24T12:41:28;24.95;39.89
65419;DHT22;52027;50.658;14.004;2022-09-24T12:51:57;25.01;39.77
65419;DHT22;52027;50.658;14.004;2022-09-24T12:57:10;25.04;39.92
65419;DHT22;52027;50.658;14.004;2022-09-24T12:59:57;25.07;39.86
65419;DHT22;52027;50.658;14.004;2022-09-24T13:02:26;25.05;39.86
65419;DHT22;52027;50.658;14.004;2022-09-24T13:05:13;25.07;39.79
65419;DHT22;52027;50.658;14.004;2022-09-24T13:07:41;25.09;39.73
65419;DHT22;52027;50.658;14.004;2022-09-24T13:10:23;25.09;39.66
65419;DHT22;52027;50.658;14.004;2022-09-24T13:12:49;25.11;39.60
65419;DHT22;52027;50.658;14.004;2022-09-24T13:15:36;25.09;39.57
65419;DHT22;52027;50.658;14.004;2022-09-24T13:20:38;25.14;39.59
65419;DHT22;52027;50.658;14.004;2022-09-24T13:25:57;25.14;39.61
65419;DHT22;52027;50.658;14.004;2022-09-24T13:28:25;25.16;39.58
65419;DHT22;52027;50.658;14.004;2022-09-24T13:30:57;25.16;39.61
65419;DHT22;52027;50.658;14.004;2022-09-24T13:33:29;25.19;39.57
65419;DHT22;52027;50.658;14.004;2022-09-24T13:36:27;25.20;39.61
65419;DHT22;52027;50.658;14.004;2022-09-24T13:38:59;25.19;39.55
65419;DHT22;52027;50.658;14.004;2022-09-24T13:41:47;25.20;39.47
65419;DHT22;52027;50.658;14.004;2022-09-24T13:44:28;25.23;39.51
65419;DHT22;52027;50.658;14.004;2022-09-24T13:47:11;25.25;39.52
65419;DHT22;52027;50.658;14.004;2022-09-24T13:49:40;25.23;39.52
65419;DHT22;52027;50.658;14.004;2022-09-24T13:52:27;25.23;39.52
65419;DHT22;52027;50.658;14.004;2022-09-24T13:54:56;25.25;39.44
65419;DHT22;52027;50.658;14.004;2022-09-24T13:57:26;25.25;39.53
65419;DHT22;52027;50.658;14.004;2022-09-24T14:02:36;25.26;39.47
65419;DHT22;52027;50.658;14.004;2022-09-24T14:05:10;25.26;39.46
65419;DHT22;52027;50.658;14.004;2022-09-24T14:07:39;25.26;39.41
65419;DHT22;52027;50.658;14.004;2022-09-24T14:10:12;25.26;39.46
65419;DHT22;52027;50.658;14.004;2022-09-24T14:12:39;25.28;39.37
65419;DHT22;52027;50.658;14.004;2022-09-24T14:15:15;25.28;39.44
65419;DHT22;52027;50.658;14.004;2022-09-24T14:17:41;25.28;39.42
65419;DHT22;52027;50.658;14.004;2022-09-24T14:20:12;25.26;39.37
65419;DHT22;52027;50.658;14.004;2022-09-24T14:22:41;25.28;39.40
65419;DHT22;52027;50.658;14.004;2022-09-24T14:25:15;25.29;39.37
65419;DHT22;52027;50.658;14.004;2022-09-24T14:27:46;25.30;39.37
65419;DHT22;52027;50.658;14.004;2022-09-24T14:30:22;25.32;39.39
65419;DHT22;52027;50.658;14.004;2022-09-24T14:32:59;25.30;39.31
65419;DHT22;52027;50.658;14.004;2022-09-24T14:35:30;25.29;39.33
65419;DHT22;52027;50.658;14.004;2022-09-24T14:38:07;25.29;39.33
65419;DHT22;52027;50.658;14.004;2022-09-24T14:40:58;25.30;39.32
65419;DHT22;52027;50.658;14.004;2022-09-24T14:46:11;25.29;39.30
65419;DHT22;52027;50.658;14.004;2022-09-24T14:48:37;25.28;39.31
65419;DHT22;52027;50.658;14.004;2022-09-24T14:51:29;25.29;39.31
65419;DHT22;52027;50.658;14.004;2022-09-24T14:54:02;25.28;39.34
65419;DHT22;52027;50.658;14.004;2022-09-24T14:56:30;25.26;39.34
65419;DHT22;52027;50.658;14.004;2022-09-24T14:58:57;25.25;39.38
65419;DHT22;52027;50.658;14.004;2022-09-24T15:01:28;25.26;39.32
65419;DHT22;52027;50.658;14.004;2022-09-24T15:03:57;25.22;39.37
65419;DHT22;52027;50.658;14.004;2022-09-24T15:06:25;25.22;39.38
65419;DHT22;52027;50.658;14.004;2022-09-24T15:09:03;25.22;39.44
65419;DHT22;52027;50.658;14.004;2022-09-24T15:11:31;25.20;39.41
65419;DHT22;52027;50.658;14.004;2022-09-24T15:16:47;25.20;39.45
65419;DHT22;52027;50.658;14.004;2022-09-24T15:19:23;25.19;39.43
65419;DHT22;52027;50.658;14.004;2022-09-24T15:21:53;25.16;39.51
65419;DHT22;52027;50.658;14.004;2022-09-24T15:24:19;25.15;39.52
65419;DHT22;52027;50.658;14.004;2022-09-24T15:26:57;25.12;39.52
65419;DHT22;52027;50.658;14.004;2022-09-24T15:29:24;25.09;39.47
65419;DHT22;52027;50.658;14.004;2022-09-24T15:31:51;25.09;39.57
65419;DHT22;52027;50.658;14.004;2022-09-24T15:34:16;25.05;39.66
65419;DHT22;52027;50.658;14.004;2022-09-24T15:36:42;25.04;39.63
65419;DHT22;52027;50.658;14.004;2022-09-24T15:39:08;25.01;39.65
65419;DHT22;52027;50.658;14.004;2022-09-24T15:41:34;25.01;39.71
65419;DHT22;52027;50.658;14.004;2022-09-24T15:44:00;24.98;39.72
65419;DHT22;52027;50.658;14.004;2022-09-24T15:46:25;24.95;39.70
65419;DHT22;52027;50.658;14.004;2022-09-24T15:48:51;24.94;39.78
65419;DHT22;52027;50.658;14.004;2022-09-24T15:51:19;24.91;39.86
65419;DHT22;52027;50.658;14.004;2022-09-24T15:53:45;24.88;39.86
65419;DHT22;52027;50.658;14.004;2022-09-24T15:56:11;24.85;39.90
65419;DHT22;52027;50.658;14.004;2022-09-24T15:58:36;24.81;40.01
65419;DHT22;52027;50.658;14.004;2022-09-24T16:01:02;24.82;39.98
65419;DHT22;52027;50.658;14.004;2022-09-24T16:03:30;24.80;40.02
65419;DHT22;52027;50.658;14.004;2022-09-24T16:05:57;24.75;40.01
65419;DHT22;52027;50.658;14.004;2022-09-24T16:08:23;24.75;40.08
65419;DHT22;52027;50.658;14.004;2022-09-24T16:10:49;24.70;40.09
65419;DHT22;52027;50.658;14.004;2022-09-24T16:13:15;24.70;40.10
65419;DHT22;52027;50.658;14.004;2022-09-24T16:15:41;24.67;40.11
65419;DHT22;52027;50.658;14.004;2022-09-24T16:18:08;24.64;40.17
65419;DHT22;52027;50.658;14.004;2022-09-24T16:20:37;24.64;40.17
65419;DHT22;52027;50.658;14.004;2022-09-24T16:23:03;24.61;40.23
65419;DHT22;52027;50.658;14.004;2022-09-24T16:25:29;24.59;40.24
65419;DHT22;52027;50.658;14.004;2022-09-24T16:27:56;24.59;40.24
65419;DHT22;52027;50.658;14.004;2022-09-24T16:30:22;24.54;40.25
65419;DHT22;52027;50.658;14.004;2022-09-24T16:32:47;24.56;40.33
65419;DHT22;52027;50.658;14.004;2022-09-24T16:35:13;24.52;40.40
65419;DHT22;52027;50.658;14.004;2022-09-24T16:37:40;24.50;40.37
65419;DHT22;52027;50.658;14.004;2022-09-24T16:40:06;24.49;40.37
65419;DHT22;52027;50.658;14.004;2022-09-24T16:42:32;24.49;40.46
65419;DHT22;52027;50.658;14.004;2022-09-24T16:44:58;24.46;40.40
65419;DHT22;52027;50.658;14.004;2022-09-24T16:47:23;24.43;40.33
65419;DHT22;52027;50.658;14.004;2022-09-24T16:49:49;24.39;40.45
65419;DHT22;52027;50.658;14.004;2022-09-24T16:52:14;24.39;40.51
65419;DHT22;52027;50.658;14.004;2022-09-24T16:54:40;24.39;40.43
65419;DHT22;52027;50.658;14.004;2022-09-24T16:57:05;24.37;40.62
65419;DHT22;52027;50.658;14.004;2022-09-24T16:59:31;24.33;40.54
65419;DHT22;52027;50.658;14.004;2022-09-24T17:01:56;24.32;40.50
65419;DHT22;52027;50.658;14.004;2022-09-24T17:04:23;24.32;40.57
65419;DHT22;52027;50.658;14.004;2022-09-24T17:06:52;24.29;40.60
65419;DHT22;52027;50.658;14.004;2022-09-24T17:09:17;24.27;40.51
65419;DHT22;52027;50.658;14.004;2022-09-24T17:12:02;24.23;40.62
65419;DHT22;52027;50.658;14.004;2022-09-24T17:14:27;24.23;40.61
65419;DHT22;52027;50.658;14.004;2022-09-24T17:16:52;24.20;40.64
65419;DHT22;52027;50.658;14.004;2022-09-24T17:19:18;24.20;40.62
65419;DHT22;52027;50.658;14.004;2022-09-24T17:21:43;24.19;40.66
65419;DHT22;52027;50.658;14.004;2022-09-24T17:24:15;24.17;40.70
65419;DHT22;52027;50.658;14.004;2022-09-24T17:26:40;24.15;40.73
65419;DHT22;52027;50.658;14.004;2022-09-24T17:29:06;24.15;40.72
65419;DHT22;52027;50.658;14.004;2022-09-24T17:31:31;24.15;40.70
65419;DHT22;52027;50.658;14.004;2022-09-24T17:33:59;24.13;40.78
65419;DHT22;52027;50.658;14.004;2022-09-24T17:36:26;24.12;40.83
65419;DHT22;52027;50.658;14.004;2022-09-24T17:38:52;24.10;40.84